createdAt,value
2018-11-25T00:00:15.985Z,22.06
2018-11-25T00:00:53.472Z,22.06
2018-11-25T00:01:31.117Z,22.06
2018-11-25T00:03:08.037Z,22.07
2018-11-25T00:03:45.664Z,22.06
2018-11-25T00:04:23.089Z,22.08
2018-11-25T00:05:00.685Z,22.06
2018-11-25T00:05:38.320Z,22.05
2018-11-25T00:06:15.826Z,22.07
2018-11-25T00:06:53.470Z,22.07
2018-11-25T00:07:34.910Z,22.07
2018-11-25T00:08:08.918Z,22.09
2018-11-25T00:08:46.621Z,22.06
2018-11-25T00:09:24.149Z,22.09
2018-11-25T00:10:01.830Z,22.07
2018-11-25T00:10:39.553Z,22.07
2018-11-25T00:11:17.353Z,22.06
2018-11-25T00:11:55.096Z,22.07
2018-11-25T00:12:32.805Z,22.07
2018-11-25T00:13:10.297Z,22.08
2018-11-25T00:13:48.093Z,22.07
2018-11-25T00:14:25.590Z,22.07
2018-11-25T00:15:03.121Z,22.08
2018-11-25T00:15:40.608Z,22.06
2018-11-25T00:16:18.266Z,22.05
2018-11-25T00:16:55.838Z,22.08
2018-11-25T00:17:33.485Z,22.08
2018-11-25T00:18:10.969Z,22.08
2018-11-25T00:18:48.645Z,22.08
2018-11-25T00:19:26.161Z,22.11
2018-11-25T00:20:03.748Z,22.08
2018-11-25T00:20:41.306Z,22.08
2018-11-25T00:21:19.183Z,22.09
2018-11-25T00:21:56.908Z,22.10
2018-11-25T00:22:34.434Z,22.10
2018-11-25T00:23:12.092Z,22.09
2018-11-25T00:23:49.894Z,22.07
2018-11-25T00:24:27.560Z,22.07
2018-11-25T00:25:05.146Z,22.09
2018-11-25T00:25:42.637Z,22.07
2018-11-25T00:26:20.226Z,22.08
2018-11-25T00:26:57.958Z,22.07
2018-11-25T00:27:35.396Z,22.07
2018-11-25T00:28:12.999Z,22.09
2018-11-25T00:28:50.635Z,22.08
2018-11-25T00:29:28.254Z,22.10
2018-11-25T00:30:05.824Z,22.09
2018-11-25T00:30:43.470Z,22.09
2018-11-25T00:31:21.030Z,22.09
2018-11-25T00:31:58.567Z,22.10
2018-11-25T00:32:36.219Z,22.07
2018-11-25T00:33:13.866Z,22.07
2018-11-25T00:33:51.422Z,22.09
2018-11-25T00:34:28.993Z,22.10
2018-11-25T00:35:06.597Z,22.09
2018-11-25T00:35:44.287Z,22.08
2018-11-25T00:36:22.011Z,22.07
2018-11-25T00:36:59.626Z,22.07
2018-11-25T00:37:37.163Z,22.09
2018-11-25T00:38:14.592Z,22.07
2018-11-25T00:38:52.216Z,22.07
2018-11-25T00:39:29.733Z,22.07
2018-11-25T00:40:07.301Z,22.07
2018-11-25T00:40:44.812Z,22.06
2018-11-25T00:41:22.392Z,22.07
2018-11-25T00:42:00.042Z,22.06
2018-11-25T00:42:37.671Z,22.04
2018-11-25T00:43:15.570Z,22.04
2018-11-25T00:43:53.102Z,22.05
2018-11-25T00:44:30.704Z,22.04
2018-11-25T00:45:08.319Z,22.02
2018-11-25T00:45:46.038Z,22.02
2018-11-25T00:46:23.920Z,22.00
2018-11-25T00:47:01.529Z,22.00
2018-11-25T00:47:39.074Z,21.99
2018-11-25T00:48:16.616Z,22.00
2018-11-25T00:48:54.253Z,22.01
2018-11-25T00:49:31.715Z,22.00
2018-11-25T00:50:09.367Z,22.00
2018-11-25T00:50:46.866Z,21.99
2018-11-25T00:51:24.465Z,22.00
2018-11-25T00:52:02.139Z,21.97
2018-11-25T00:52:39.706Z,21.96
2018-11-25T00:53:17.630Z,21.97
2018-11-25T00:53:55.496Z,21.97
2018-11-25T00:54:33.246Z,21.96
2018-11-25T00:55:10.716Z,21.96
2018-11-25T00:55:48.522Z,21.96
2018-11-25T00:56:26.003Z,21.95
2018-11-25T00:57:03.844Z,21.94
2018-11-25T00:57:41.545Z,21.94
2018-11-25T00:58:19.068Z,21.96
2018-11-25T00:58:56.733Z,21.97
2018-11-25T00:59:34.439Z,21.95
2018-11-25T01:00:12.182Z,21.93
2018-11-25T01:00:49.670Z,21.93
2018-11-25T01:01:27.263Z,21.93
2018-11-25T01:02:04.984Z,21.93
2018-11-25T01:02:42.681Z,21.93
2018-11-25T01:03:20.166Z,21.92
2018-11-25T01:03:57.778Z,21.91
2018-11-25T01:04:35.562Z,21.92
2018-11-25T01:05:13.348Z,21.91
2018-11-25T01:05:50.886Z,21.91
2018-11-25T01:06:28.439Z,21.92
2018-11-25T01:07:05.990Z,21.91
2018-11-25T01:07:43.739Z,21.91
2018-11-25T01:08:21.270Z,21.91
2018-11-25T01:08:58.939Z,21.88
2018-11-25T01:09:36.429Z,21.84
2018-11-25T01:10:13.955Z,21.82
2018-11-25T01:10:51.586Z,21.80
2018-11-25T01:11:29.230Z,21.79
2018-11-25T01:12:06.778Z,21.77
2018-11-25T01:12:44.492Z,21.76
2018-11-25T01:13:22.043Z,21.75
2018-11-25T01:13:59.893Z,21.74
2018-11-25T01:14:37.667Z,21.73
2018-11-25T01:15:15.193Z,21.73
2018-11-25T01:15:53.150Z,21.71
2018-11-25T01:16:30.831Z,21.70
2018-11-25T01:17:08.479Z,21.70
2018-11-25T01:17:46.047Z,21.69
2018-11-25T01:18:23.596Z,21.69
2018-11-25T01:19:01.232Z,21.69
2018-11-25T01:19:38.806Z,21.68
2018-11-25T01:20:16.274Z,21.68
2018-11-25T01:20:53.808Z,21.69
2018-11-25T01:21:31.314Z,21.68
2018-11-25T01:22:08.801Z,21.67
2018-11-25T01:22:46.849Z,21.67
2018-11-25T01:23:24.223Z,21.67
2018-11-25T01:24:01.943Z,21.67
2018-11-25T01:24:39.549Z,21.67
2018-11-25T01:25:17.143Z,21.66
2018-11-25T01:25:55.131Z,21.65
2018-11-25T01:26:32.645Z,21.65
2018-11-25T01:27:10.399Z,21.66
2018-11-25T01:27:48.114Z,21.66
2018-11-25T01:28:25.903Z,21.65
2018-11-25T01:29:03.356Z,21.64
2018-11-25T01:29:41.063Z,21.65
2018-11-25T01:30:18.555Z,21.65
2018-11-25T01:30:56.151Z,21.63
2018-11-25T01:31:33.686Z,21.65
2018-11-25T01:32:11.292Z,21.63
2018-11-25T01:32:48.647Z,21.63
2018-11-25T01:33:26.407Z,21.62
2018-11-25T01:34:04.113Z,21.63
2018-11-25T01:34:41.683Z,21.63
2018-11-25T01:35:19.288Z,21.63
2018-11-25T01:35:56.958Z,21.63
2018-11-25T01:36:34.587Z,21.63
2018-11-25T01:37:12.118Z,21.62
2018-11-25T01:37:49.822Z,21.62
2018-11-25T01:38:27.428Z,21.62
2018-11-25T01:39:04.958Z,21.61
2018-11-25T01:39:42.451Z,21.61
2018-11-25T01:40:20.318Z,21.62
2018-11-25T01:40:57.870Z,21.62
2018-11-25T01:41:35.578Z,21.60
2018-11-25T01:42:13.143Z,21.60
2018-11-25T01:42:50.635Z,21.60
2018-11-25T01:43:28.399Z,21.60
2018-11-25T01:44:06.251Z,21.60
2018-11-25T01:44:44.009Z,21.60
2018-11-25T01:45:21.390Z,21.60
2018-11-25T01:45:59.202Z,21.60
2018-11-25T01:46:36.879Z,21.61
2018-11-25T01:47:14.459Z,21.59
2018-11-25T01:47:52.104Z,21.60
2018-11-25T01:48:29.977Z,21.60
2018-11-25T01:49:07.487Z,21.59
2018-11-25T01:49:44.936Z,21.59
2018-11-25T01:50:22.525Z,21.58
2018-11-25T01:51:00.158Z,21.59
2018-11-25T01:51:38.002Z,21.58
2018-11-25T01:52:15.444Z,21.59
2018-11-25T01:52:53.004Z,21.58
2018-11-25T01:53:30.596Z,21.58
2018-11-25T01:54:08.176Z,21.59
2018-11-25T01:54:45.850Z,21.58
2018-11-25T01:55:23.344Z,21.59
2018-11-25T01:56:01.123Z,21.59
2018-11-25T01:56:38.627Z,21.58
2018-11-25T01:57:16.287Z,21.58
2018-11-25T01:57:53.807Z,21.58
2018-11-25T01:58:31.762Z,21.57
2018-11-25T01:59:09.562Z,21.57
2018-11-25T01:59:47.277Z,21.57
2018-11-25T02:00:24.665Z,21.57
2018-11-25T02:01:02.313Z,21.58
2018-11-25T02:01:39.856Z,21.58
2018-11-25T02:02:17.476Z,21.58
2018-11-25T02:02:55.001Z,21.57
2018-11-25T02:03:32.450Z,21.58
2018-11-25T02:04:09.885Z,21.58
2018-11-25T02:04:47.686Z,21.57
2018-11-25T02:05:25.612Z,21.57
2018-11-25T02:06:03.075Z,21.57
2018-11-25T02:06:40.639Z,21.56
2018-11-25T02:07:18.233Z,21.58
2018-11-25T02:07:55.869Z,21.56
2018-11-25T02:08:33.612Z,21.57
2018-11-25T02:09:11.191Z,21.57
2018-11-25T02:09:48.932Z,21.56
2018-11-25T02:10:26.360Z,21.58
2018-11-25T02:11:03.879Z,21.56
2018-11-25T02:11:41.416Z,21.56
2018-11-25T02:12:18.996Z,21.56
2018-11-25T02:12:56.569Z,21.56
2018-11-25T02:13:34.083Z,21.57
2018-11-25T02:14:11.663Z,21.56
2018-11-25T02:14:49.186Z,21.56
2018-11-25T02:15:26.916Z,21.56
2018-11-25T02:16:04.343Z,21.55
2018-11-25T02:16:41.767Z,21.56
2018-11-25T02:17:19.388Z,21.56
2018-11-25T02:17:56.906Z,21.56
2018-11-25T02:18:34.520Z,21.55
2018-11-25T02:19:12.152Z,21.56
2018-11-25T02:19:49.739Z,21.56
2018-11-25T02:20:27.368Z,21.56
2018-11-25T02:21:04.918Z,21.56
2018-11-25T02:21:42.448Z,21.56
2018-11-25T02:22:20.024Z,21.54
2018-11-25T02:22:57.831Z,21.56
2018-11-25T02:23:35.527Z,21.54
2018-11-25T02:24:13.026Z,21.55
2018-11-25T02:24:50.777Z,21.54
2018-11-25T02:25:28.373Z,21.54
2018-11-25T02:26:05.879Z,21.53
2018-11-25T02:26:43.623Z,21.53
2018-11-25T02:27:21.204Z,21.54
2018-11-25T02:27:58.710Z,21.54
2018-11-25T02:28:36.672Z,21.54
2018-11-25T02:29:14.254Z,21.53
2018-11-25T02:29:51.835Z,21.53
2018-11-25T02:30:29.621Z,21.53
2018-11-25T02:31:07.406Z,21.53
2018-11-25T02:31:45.258Z,21.53
2018-11-25T02:32:22.774Z,21.53
2018-11-25T02:33:00.212Z,21.53
2018-11-25T02:33:38.039Z,21.53
2018-11-25T02:34:15.627Z,21.53
2018-11-25T02:34:53.196Z,21.53
2018-11-25T02:35:30.738Z,21.53
2018-11-25T02:36:08.347Z,21.53
2018-11-25T02:36:45.999Z,21.53
2018-11-25T02:37:23.607Z,21.54
2018-11-25T02:38:01.236Z,21.53
2018-11-25T02:38:38.908Z,21.53
2018-11-25T02:39:16.520Z,21.53
2018-11-25T02:39:54.227Z,21.53
2018-11-25T02:40:31.915Z,21.53
2018-11-25T02:41:09.446Z,21.52
2018-11-25T02:41:47.146Z,21.52
2018-11-25T02:42:24.734Z,21.53
2018-11-25T02:43:02.362Z,21.53
2018-11-25T02:43:40.023Z,21.52
2018-11-25T02:44:17.610Z,21.52
2018-11-25T02:44:55.106Z,21.52
2018-11-25T02:45:32.707Z,21.53
2018-11-25T02:46:10.184Z,21.54
2018-11-25T02:46:47.927Z,21.53
2018-11-25T02:47:25.559Z,21.52
2018-11-25T02:48:03.196Z,21.53
2018-11-25T02:48:40.688Z,21.52
2018-11-25T02:49:18.357Z,21.51
2018-11-25T02:49:56.026Z,21.53
2018-11-25T02:50:33.693Z,21.51
2018-11-25T02:51:11.340Z,21.52
2018-11-25T02:51:49.174Z,21.52
2018-11-25T02:52:26.655Z,21.52
2018-11-25T02:53:04.103Z,21.52
2018-11-25T02:53:41.871Z,21.52
2018-11-25T02:54:19.455Z,21.52
2018-11-25T02:54:57.132Z,21.53
2018-11-25T02:55:34.732Z,21.50
2018-11-25T02:56:12.310Z,21.50
2018-11-25T02:56:49.880Z,21.51
2018-11-25T02:57:27.482Z,21.52
2018-11-25T02:58:05.136Z,21.50
2018-11-25T02:58:42.733Z,21.51
2018-11-25T02:59:20.196Z,21.52
2018-11-25T02:59:57.802Z,21.50
2018-11-25T03:00:35.302Z,21.51
2018-11-25T03:01:12.949Z,21.52
2018-11-25T03:01:50.512Z,21.51
2018-11-25T03:02:28.124Z,21.51
2018-11-25T03:03:05.699Z,21.50
2018-11-25T03:03:43.185Z,21.50
2018-11-25T03:04:20.700Z,21.50
2018-11-25T03:04:58.286Z,21.51
2018-11-25T03:05:35.818Z,21.50
2018-11-25T03:06:13.435Z,21.50
2018-11-25T03:06:51.157Z,21.51
2018-11-25T03:07:28.647Z,21.52
2018-11-25T03:08:06.274Z,21.51
2018-11-25T03:08:43.986Z,21.50
2018-11-25T03:09:21.572Z,21.50
2018-11-25T03:09:59.195Z,21.50
2018-11-25T03:10:36.691Z,21.51
2018-11-25T03:11:14.536Z,21.51
2018-11-25T03:11:52.080Z,21.50
2018-11-25T03:12:29.677Z,21.51
2018-11-25T03:13:07.203Z,21.50
2018-11-25T03:13:44.834Z,21.50
2018-11-25T03:14:22.562Z,21.50
2018-11-25T03:15:00.169Z,21.53
2018-11-25T03:15:37.731Z,21.51
2018-11-25T03:16:15.568Z,21.52
2018-11-25T03:16:53.287Z,21.52
2018-11-25T03:17:30.887Z,21.51
2018-11-25T03:18:08.470Z,21.51
2018-11-25T03:18:46.057Z,21.53
2018-11-25T03:19:23.476Z,21.52
2018-11-25T03:20:01.183Z,21.52
2018-11-25T03:20:38.842Z,21.53
2018-11-25T03:21:16.472Z,21.53
2018-11-25T03:21:54.118Z,21.56
2018-11-25T03:22:31.632Z,21.54
2018-11-25T03:23:09.422Z,21.56
2018-11-25T03:23:46.935Z,21.55
2018-11-25T03:24:24.543Z,21.56
2018-11-25T03:25:02.174Z,21.55
2018-11-25T03:25:39.939Z,21.56
2018-11-25T03:26:17.474Z,21.55
2018-11-25T03:26:55.053Z,21.56
2018-11-25T03:27:32.676Z,21.56
2018-11-25T03:28:10.325Z,21.56
2018-11-25T03:28:48.023Z,21.56
2018-11-25T03:29:25.741Z,21.55
2018-11-25T03:30:03.425Z,21.56
2018-11-25T03:30:40.939Z,21.56
2018-11-25T03:31:18.518Z,21.54
2018-11-25T03:31:56.339Z,21.55
2018-11-25T03:32:33.830Z,21.54
2018-11-25T03:33:11.612Z,21.54
2018-11-25T03:33:49.287Z,21.54
2018-11-25T03:34:26.747Z,21.53
2018-11-25T03:35:04.333Z,21.53
2018-11-25T03:35:41.933Z,21.52
2018-11-25T03:36:19.447Z,21.52
2018-11-25T03:36:57.081Z,21.51
2018-11-25T03:37:34.554Z,21.52
2018-11-25T03:38:12.106Z,21.51
2018-11-25T03:38:49.823Z,21.52
2018-11-25T03:39:27.447Z,21.52
2018-11-25T03:40:04.993Z,21.51
2018-11-25T03:40:42.529Z,21.52
2018-11-25T03:41:20.192Z,21.51
2018-11-25T03:41:58.153Z,21.50
2018-11-25T03:42:35.655Z,21.50
2018-11-25T03:43:13.147Z,21.52
2018-11-25T03:43:50.761Z,21.51
2018-11-25T03:44:28.382Z,21.52
2018-11-25T03:45:06.182Z,21.52
2018-11-25T03:45:44.004Z,21.52
2018-11-25T03:46:21.543Z,21.52
2018-11-25T03:46:59.154Z,21.52
2018-11-25T03:47:36.802Z,21.52
2018-11-25T03:48:14.368Z,21.52
2018-11-25T03:48:51.953Z,21.52
2018-11-25T03:49:29.547Z,21.52
2018-11-25T03:50:07.162Z,21.52
2018-11-25T03:50:44.600Z,21.52
2018-11-25T03:51:22.179Z,21.50
2018-11-25T03:51:59.979Z,21.54
2018-11-25T03:52:37.556Z,21.51
2018-11-25T03:53:15.107Z,21.52
2018-11-25T03:53:52.643Z,21.52
2018-11-25T03:54:30.340Z,21.53
2018-11-25T03:55:07.832Z,21.53
2018-11-25T03:55:45.430Z,21.51
2018-11-25T03:56:22.989Z,21.53
2018-11-25T03:57:00.462Z,21.53
2018-11-25T03:57:37.978Z,21.53
2018-11-25T03:58:15.510Z,21.53
2018-11-25T03:58:53.278Z,21.54
2018-11-25T03:59:31.095Z,21.53
2018-11-25T04:00:08.750Z,21.54
2018-11-25T04:00:46.063Z,21.53
2018-11-25T04:01:23.784Z,21.54
2018-11-25T04:02:01.721Z,21.54
2018-11-25T04:02:39.583Z,21.55
2018-11-25T04:03:16.997Z,21.55
2018-11-25T04:03:54.579Z,21.54
2018-11-25T04:04:31.992Z,21.54
2018-11-25T04:05:09.573Z,21.56
2018-11-25T04:05:47.171Z,21.54
2018-11-25T04:06:24.651Z,21.55
2018-11-25T04:07:02.146Z,21.56
2018-11-25T04:07:39.802Z,21.56
2018-11-25T04:08:17.294Z,21.55
2018-11-25T04:08:54.949Z,21.57
2018-11-25T04:09:32.492Z,21.58
2018-11-25T04:10:09.939Z,21.58
2018-11-25T04:10:47.426Z,21.58
2018-11-25T04:11:25.242Z,21.58
2018-11-25T04:12:02.894Z,21.58
2018-11-25T04:12:40.447Z,21.59
2018-11-25T04:13:18.035Z,21.59
2018-11-25T04:13:55.615Z,21.59
2018-11-25T04:14:33.194Z,21.60
2018-11-25T04:15:10.748Z,21.60
2018-11-25T04:15:48.331Z,21.61
2018-11-25T04:16:25.815Z,21.60
2018-11-25T04:17:03.696Z,21.61
2018-11-25T04:17:41.292Z,21.61
2018-11-25T04:18:19.012Z,21.61
2018-11-25T04:18:56.387Z,21.62
2018-11-25T04:19:34.097Z,21.62
2018-11-25T04:20:11.781Z,21.61
2018-11-25T04:20:49.474Z,21.62
2018-11-25T04:21:27.156Z,21.62
2018-11-25T04:22:04.889Z,21.61
2018-11-25T04:22:42.500Z,21.61
2018-11-25T04:23:20.103Z,21.63
2018-11-25T04:23:57.706Z,21.62
2018-11-25T04:24:35.386Z,21.63
2018-11-25T04:25:13.027Z,21.63
2018-11-25T04:25:50.596Z,21.65
2018-11-25T04:26:28.329Z,21.65
2018-11-25T04:27:05.751Z,21.63
2018-11-25T04:27:43.306Z,21.64
2018-11-25T04:28:20.894Z,21.64
2018-11-25T04:28:58.609Z,21.64
2018-11-25T04:29:36.236Z,21.64
2018-11-25T04:30:13.817Z,21.64
2018-11-25T04:30:51.532Z,21.63
2018-11-25T04:31:29.304Z,21.64
2018-11-25T04:32:06.835Z,21.64
2018-11-25T04:32:44.503Z,21.65
2018-11-25T04:33:22.051Z,21.64
2018-11-25T04:33:59.618Z,21.64
2018-11-25T04:34:37.366Z,21.64
2018-11-25T04:35:15.188Z,21.63
2018-11-25T04:35:52.691Z,21.63
2018-11-25T04:36:30.467Z,21.64
2018-11-25T04:37:08.157Z,21.65
2018-11-25T04:37:45.704Z,21.65
2018-11-25T04:38:23.358Z,21.64
2018-11-25T04:39:00.815Z,21.65
2018-11-25T04:39:38.557Z,21.65
2018-11-25T04:40:15.954Z,21.66
2018-11-25T04:40:53.667Z,21.65
2018-11-25T04:41:31.332Z,21.64
2018-11-25T04:42:08.771Z,21.64
2018-11-25T04:42:46.263Z,21.65
2018-11-25T04:43:23.899Z,21.65
2018-11-25T04:44:01.829Z,21.66
2018-11-25T04:44:39.506Z,21.67
2018-11-25T04:45:17.283Z,21.68
2018-11-25T04:45:55.041Z,21.68
2018-11-25T04:46:32.588Z,21.67
2018-11-25T04:47:10.171Z,21.67
2018-11-25T04:47:47.820Z,21.67
2018-11-25T04:48:25.554Z,21.68
2018-11-25T04:49:03.191Z,21.68
2018-11-25T04:49:40.708Z,21.67
2018-11-25T04:50:18.376Z,21.67
2018-11-25T04:50:56.143Z,21.68
2018-11-25T04:51:34.074Z,21.69
2018-11-25T04:52:11.661Z,21.72
2018-11-25T04:52:49.355Z,21.70
2018-11-25T04:53:26.973Z,21.72
2018-11-25T04:54:04.614Z,21.70
2018-11-25T04:54:42.206Z,21.69
2018-11-25T04:55:19.707Z,21.70
2018-11-25T04:55:57.251Z,21.69
2018-11-25T04:56:35.048Z,21.70
2018-11-25T04:57:12.562Z,21.70
2018-11-25T04:57:50.136Z,21.69
2018-11-25T04:58:27.916Z,21.70
2018-11-25T04:59:05.425Z,21.70
2018-11-25T04:59:42.966Z,21.70
2018-11-25T05:00:20.490Z,21.69
2018-11-25T05:00:57.990Z,21.70
2018-11-25T05:01:35.769Z,21.70
2018-11-25T05:02:13.556Z,21.71
2018-11-25T05:02:51.132Z,21.72
2018-11-25T05:03:28.512Z,21.71
2018-11-25T05:04:06.062Z,21.71
2018-11-25T05:04:43.528Z,21.71
2018-11-25T05:05:21.187Z,21.70
2018-11-25T05:05:59.053Z,21.70
2018-11-25T05:06:36.531Z,21.71
2018-11-25T05:07:14.199Z,21.70
2018-11-25T05:07:51.714Z,21.69
2018-11-25T05:08:29.363Z,21.70
2018-11-25T05:09:07.095Z,21.70
2018-11-25T05:09:44.527Z,21.69
2018-11-25T05:10:22.237Z,21.69
2018-11-25T05:11:00.106Z,21.70
2018-11-25T05:11:37.675Z,21.68
2018-11-25T05:12:15.347Z,21.69
2018-11-25T05:12:53.067Z,21.69
2018-11-25T05:13:30.585Z,21.69
2018-11-25T05:14:08.186Z,21.70
2018-11-25T05:14:45.818Z,21.70
2018-11-25T05:15:23.582Z,21.71
2018-11-25T05:16:01.231Z,21.70
2018-11-25T05:16:39.163Z,21.72
2018-11-25T05:17:16.719Z,21.72
2018-11-25T05:17:54.307Z,21.71
2018-11-25T05:18:31.994Z,21.72
2018-11-25T05:19:09.583Z,21.72
2018-11-25T05:19:47.237Z,21.70
2018-11-25T05:20:24.963Z,21.72
2018-11-25T05:21:02.678Z,21.72
2018-11-25T05:21:40.163Z,21.71
2018-11-25T05:22:17.775Z,21.71
2018-11-25T05:22:55.522Z,21.70
2018-11-25T05:23:33.118Z,21.69
2018-11-25T05:24:10.646Z,21.69
2018-11-25T05:24:48.358Z,21.70
2018-11-25T05:25:25.905Z,21.72
2018-11-25T05:26:03.461Z,21.72
2018-11-25T05:26:41.102Z,21.72
2018-11-25T05:27:18.742Z,21.71
2018-11-25T05:27:56.366Z,21.71
2018-11-25T05:28:34.191Z,21.70
2018-11-25T05:29:11.863Z,21.70
2018-11-25T05:29:49.360Z,21.72
2018-11-25T05:30:27.047Z,21.71
2018-11-25T05:31:04.774Z,21.70
2018-11-25T05:31:42.713Z,21.70
2018-11-25T05:32:20.255Z,21.71
2018-11-25T05:32:57.987Z,21.70
2018-11-25T05:33:35.583Z,21.72
2018-11-25T05:34:13.210Z,21.73
2018-11-25T05:34:50.872Z,21.72
2018-11-25T05:35:28.453Z,21.72
2018-11-25T05:36:06.122Z,21.73
2018-11-25T05:36:43.625Z,21.75
2018-11-25T05:37:21.246Z,21.74
2018-11-25T05:37:59.104Z,21.73
2018-11-25T05:38:36.648Z,21.72
2018-11-25T05:39:14.231Z,21.74
2018-11-25T05:39:51.712Z,21.73
2018-11-25T05:40:29.219Z,21.73
2018-11-25T05:41:06.862Z,21.73
2018-11-25T05:41:44.428Z,21.73
2018-11-25T05:42:22.060Z,21.73
2018-11-25T05:42:59.757Z,21.72
2018-11-25T05:43:37.538Z,21.72
2018-11-25T05:44:14.994Z,21.72
2018-11-25T05:44:52.540Z,21.73
2018-11-25T05:45:30.280Z,21.72
2018-11-25T05:46:08.239Z,21.70
2018-11-25T05:46:45.702Z,21.71
2018-11-25T05:47:23.448Z,21.71
2018-11-25T05:48:00.865Z,21.70
2018-11-25T05:48:38.633Z,21.70
2018-11-25T05:49:16.431Z,21.71
2018-11-25T05:49:54.307Z,21.70
2018-11-25T05:50:32.093Z,21.71
2018-11-25T05:51:09.670Z,21.70
2018-11-25T05:51:47.320Z,21.70
2018-11-25T05:52:24.911Z,21.70
2018-11-25T05:53:02.484Z,21.71
2018-11-25T05:53:40.095Z,21.70
2018-11-25T05:54:17.712Z,21.69
2018-11-25T05:54:55.204Z,21.70
2018-11-25T05:55:32.847Z,21.71
2018-11-25T05:56:10.417Z,21.70
2018-11-25T05:56:48.079Z,21.71
2018-11-25T05:57:25.606Z,21.69
2018-11-25T05:58:03.124Z,21.70
2018-11-25T05:58:40.724Z,21.69
2018-11-25T05:59:18.517Z,21.70
2018-11-25T05:59:56.191Z,21.70
2018-11-25T06:00:34.109Z,21.70
2018-11-25T06:01:11.654Z,21.70
2018-11-25T06:01:49.303Z,21.71
2018-11-25T06:02:26.858Z,21.71
2018-11-25T06:03:04.331Z,21.71
2018-11-25T06:03:41.827Z,21.70
2018-11-25T06:04:19.388Z,21.70
2018-11-25T06:04:56.890Z,21.69
2018-11-25T06:05:34.416Z,21.71
2018-11-25T06:06:11.987Z,21.72
2018-11-25T06:06:49.630Z,21.72
2018-11-25T06:07:27.206Z,21.74
2018-11-25T06:08:05.004Z,21.72
2018-11-25T06:08:42.539Z,21.73
2018-11-25T06:09:20.083Z,21.72
2018-11-25T06:09:57.710Z,21.71
2018-11-25T06:10:35.334Z,21.72
2018-11-25T06:11:12.880Z,21.70
2018-11-25T06:11:50.508Z,21.71
2018-11-25T06:12:28.082Z,21.71
2018-11-25T06:13:05.695Z,21.71
2018-11-25T06:13:43.594Z,21.71
2018-11-25T06:14:20.972Z,21.71
2018-11-25T06:14:58.396Z,21.70
2018-11-25T06:15:36.164Z,21.71
2018-11-25T06:16:14.020Z,21.71
2018-11-25T06:16:51.597Z,21.74
2018-11-25T06:17:29.291Z,21.73
2018-11-25T06:18:06.852Z,21.72
2018-11-25T06:18:44.443Z,21.73
2018-11-25T06:19:22.099Z,21.73
2018-11-25T06:19:59.559Z,21.72
2018-11-25T06:20:37.116Z,21.71
2018-11-25T06:21:14.750Z,21.71
2018-11-25T06:21:52.212Z,21.72
2018-11-25T06:22:29.809Z,21.71
2018-11-25T06:23:07.259Z,21.71
2018-11-25T06:23:44.851Z,21.71
2018-11-25T06:24:22.423Z,21.72
2018-11-25T06:25:00.008Z,21.72
2018-11-25T06:25:37.511Z,21.71
2018-11-25T06:26:15.228Z,21.72
2018-11-25T06:26:52.818Z,21.71
2018-11-25T06:27:30.508Z,21.71
2018-11-25T06:28:07.994Z,21.71
2018-11-25T06:28:45.496Z,21.71
2018-11-25T06:29:23.079Z,21.71
2018-11-25T06:30:00.754Z,21.70
2018-11-25T06:30:38.250Z,21.69
2018-11-25T06:31:15.820Z,21.70
2018-11-25T06:31:53.414Z,21.71
2018-11-25T06:32:31.168Z,21.71
2018-11-25T06:33:08.655Z,21.70
2018-11-25T06:33:46.345Z,21.71
2018-11-25T06:34:23.974Z,21.71
2018-11-25T06:35:01.798Z,21.71
2018-11-25T06:35:39.361Z,21.73
2018-11-25T06:36:16.952Z,21.72
2018-11-25T06:36:54.410Z,21.71
2018-11-25T06:37:31.922Z,21.71
2018-11-25T06:38:09.498Z,21.72
2018-11-25T06:38:47.047Z,21.71
2018-11-25T06:39:24.718Z,21.71
2018-11-25T06:40:02.322Z,21.71
2018-11-25T06:40:39.802Z,21.71
2018-11-25T06:41:17.289Z,21.70
2018-11-25T06:41:54.865Z,21.71
2018-11-25T06:42:32.640Z,21.71
2018-11-25T06:43:10.055Z,21.70
2018-11-25T06:43:47.840Z,21.71
2018-11-25T06:44:25.321Z,21.70
2018-11-25T06:45:02.778Z,21.71
2018-11-25T06:45:40.458Z,21.72
2018-11-25T06:46:17.853Z,21.71
2018-11-25T06:46:55.528Z,21.71
2018-11-25T06:47:33.096Z,21.72
2018-11-25T06:48:10.797Z,21.72
2018-11-25T06:48:54.840Z,21.71
2018-11-25T06:49:26.063Z,21.71
2018-11-25T06:50:03.645Z,21.71
2018-11-25T06:50:41.141Z,21.71
2018-11-25T06:51:18.724Z,21.71
2018-11-25T06:51:56.397Z,21.71
2018-11-25T06:52:34.076Z,21.72
2018-11-25T06:53:11.830Z,21.72
2018-11-25T06:53:49.379Z,21.71
2018-11-25T06:54:27.158Z,21.70
2018-11-25T06:55:04.910Z,21.72
2018-11-25T06:55:42.546Z,21.71
2018-11-25T06:56:27.197Z,21.70
2018-11-25T06:56:57.783Z,21.70
2018-11-25T06:57:35.438Z,21.70
2018-11-25T06:58:13.224Z,21.71
2018-11-25T06:58:50.984Z,21.70
2018-11-25T06:59:28.658Z,21.71
2018-11-25T07:00:06.061Z,21.72
2018-11-25T07:00:43.756Z,21.71
2018-11-25T07:01:21.194Z,21.71
2018-11-25T07:01:58.607Z,21.70
2018-11-25T07:02:36.304Z,21.71
2018-11-25T07:03:14.079Z,21.70
2018-11-25T07:03:51.775Z,21.71
2018-11-25T07:04:29.275Z,21.71
2018-11-25T07:05:06.925Z,21.71
2018-11-25T07:05:44.577Z,21.70
2018-11-25T07:06:22.027Z,21.70
2018-11-25T07:06:59.678Z,21.70
2018-11-25T07:07:37.216Z,21.71
2018-11-25T07:08:14.933Z,21.70
2018-11-25T07:08:52.663Z,21.69
2018-11-25T07:09:30.203Z,21.70
2018-11-25T07:10:07.840Z,21.71
2018-11-25T07:10:45.379Z,21.72
2018-11-25T07:11:23.005Z,21.72
2018-11-25T07:12:00.579Z,21.72
2018-11-25T07:12:38.194Z,21.73
2018-11-25T07:13:15.995Z,21.72
2018-11-25T07:13:53.748Z,21.72
2018-11-25T07:14:31.463Z,21.72
2018-11-25T07:15:08.993Z,21.72
2018-11-25T07:15:46.796Z,21.72
2018-11-25T07:16:24.475Z,21.72
2018-11-25T07:17:02.199Z,21.72
2018-11-25T07:17:39.670Z,21.70
2018-11-25T07:18:17.320Z,21.72
2018-11-25T07:18:54.880Z,21.71
2018-11-25T07:19:32.488Z,21.71
2018-11-25T07:20:10.076Z,21.71
2018-11-25T07:20:47.684Z,21.70
2018-11-25T07:21:25.228Z,21.71
2018-11-25T07:22:02.956Z,21.71
2018-11-25T07:22:40.482Z,21.71
2018-11-25T07:23:18.042Z,21.72
2018-11-25T07:23:55.525Z,21.72
2018-11-25T07:24:32.962Z,21.71
2018-11-25T07:25:10.411Z,21.71
2018-11-25T07:25:48.066Z,21.72
2018-11-25T07:26:25.712Z,21.71
2018-11-25T07:27:03.306Z,21.72
2018-11-25T07:27:40.931Z,21.71
2018-11-25T07:28:18.864Z,21.71
2018-11-25T07:28:55.991Z,21.72
2018-11-25T07:29:33.515Z,21.72
2018-11-25T07:30:11.101Z,21.72
2018-11-25T07:30:48.799Z,21.72
2018-11-25T07:31:26.434Z,21.72
2018-11-25T07:32:03.999Z,21.72
2018-11-25T07:32:41.598Z,21.72
2018-11-25T07:33:19.415Z,21.72
2018-11-25T07:33:56.962Z,21.72
2018-11-25T07:34:34.595Z,21.72
2018-11-25T07:35:12.221Z,21.72
2018-11-25T07:35:50.040Z,21.72
2018-11-25T07:36:27.482Z,21.72
2018-11-25T07:37:05.052Z,21.73
2018-11-25T07:37:43.065Z,21.72
2018-11-25T07:38:20.870Z,21.73
2018-11-25T07:38:58.611Z,21.72
2018-11-25T07:39:36.176Z,21.73
2018-11-25T07:40:13.739Z,21.72
2018-11-25T07:40:51.378Z,21.71
2018-11-25T07:41:28.884Z,21.73
2018-11-25T07:42:06.682Z,21.74
2018-11-25T07:42:44.221Z,21.73
2018-11-25T07:43:21.802Z,21.74
2018-11-25T07:43:59.600Z,21.74
2018-11-25T07:44:37.138Z,21.74
2018-11-25T07:45:14.720Z,21.74
2018-11-25T07:45:52.575Z,21.74
2018-11-25T07:47:01.800Z,21.75
2018-11-25T07:47:39.362Z,21.75
2018-11-25T07:48:16.982Z,21.74
2018-11-25T07:48:54.554Z,21.74
2018-11-25T07:49:32.150Z,21.75
2018-11-25T07:50:09.745Z,21.75
2018-11-25T07:50:47.447Z,21.75
2018-11-25T07:51:25.034Z,21.74
2018-11-25T07:52:02.569Z,21.74
2018-11-25T07:52:40.219Z,21.75
2018-11-25T07:53:17.795Z,21.73
2018-11-25T07:53:55.271Z,21.75
2018-11-25T07:54:33.098Z,21.74
2018-11-25T07:55:11.056Z,21.74
2018-11-25T07:55:48.731Z,21.73
2018-11-25T07:56:26.580Z,21.75
2018-11-25T07:57:04.228Z,21.75
2018-11-25T07:57:41.667Z,21.73
2018-11-25T07:58:19.123Z,21.74
2018-11-25T07:58:56.746Z,21.74
2018-11-25T07:59:34.348Z,21.75
2018-11-25T08:00:11.979Z,21.74
2018-11-25T08:00:49.420Z,21.74
2018-11-25T08:01:26.908Z,21.74
2018-11-25T08:02:04.297Z,21.74
2018-11-25T08:02:41.929Z,21.74
2018-11-25T08:03:19.448Z,21.73
2018-11-25T08:03:57.231Z,21.74
2018-11-25T08:04:34.813Z,21.73
2018-11-25T08:05:13.716Z,21.73
2018-11-25T08:05:51.367Z,21.74